Aviation Digital Data Service (ADDS)

Output produced by METARs form (2023 UTC 28 May 2017)
found at http://aviationweather.gov/adds/metars/
 
KMHT 281720Z 2818/2918 15006KT P6SM BKN050 
     FM290000 14006KT P6SM SCT050 
     FM290300 15005KT P6SM BKN050 
     FM291000 13004KT P6SM BKN015 
     PROB30 2912/2914 4SM -SHRA OVC007 
     FM291400 11007KT P6SM -SHRA OVC015 
     FM291700 10008KT 3SM -SHRA OVC008